OMDB/DXB METAR and TAF weather

Enter ICAO airport designator
Station Type Date Time Source
OMDB METAR 2020/09/27 00:00 UTC NOAA

OMDB 270000Z 15003KT 120V180 CAVOK 30/24 Q1004 NOSIG


Station Type Date Time Source
OMDB Decoded METAR 2020/09/27 00:00 UTC NOAA

Dubai International Airport, United Arab Emirates (OMDB) 25-15N 055-20E 5M
Sep 26, 2020 - 08:00 PM EDT / 2020.09.27 0000 UTC
Wind: from the SSE (150 degrees) at 3 MPH (3 KT) (direction variable):0
Visibility: greater than 7 mile(s):0
Temperature: 86 F (30 C)
Heat index: 95.0 F (35.0 C):1
Dew Point: 75 F (24 C)
Relative Humidity: 70%
Pressure (altimeter): 29.65 in. Hg (1004 hPa)
ob: OMDB 270000Z 15003KT 120V180 CAVOK 30/24 Q1004 NOSIG
cycle: 0

Station Type Date Time Source
OMDB TAF 2020/09/26 18:11 UTC NOAA

TAF OMDB 261651Z 2618/2800 06005KT 8000 NSC PROB30 2702/2704 4000 HZ
BECMG 2708/2710 32012KT
BECMG 2716/2718 12005KT

Example: see airport list